createdAt,value
2023-06-17T00:01:56.030Z,1.9899665551839465
2023-06-17T00:12:26.465Z,1.7759197324414715
2023-06-17T00:18:46.880Z,1.4749163879598661
2023-06-17T00:29:23.563Z,1.391304347826087
2023-06-17T00:41:13.158Z,2.7725752508361206
2023-06-17T00:47:34.656Z,2.301003344481605
2023-06-17T00:53:55.330Z,2.2474916387959865
2023-06-17T01:00:15.955Z,2.652173913043478
2023-06-17T01:06:36.594Z,2.4615384615384617
2023-06-17T01:12:56.245Z,2.919732441471572
2023-06-17T01:19:16.037Z,2.588628762541806
2023-06-17T01:25:36.497Z,3.5418060200668897
2023-06-17T01:41:10.407Z,2.7525083612040135
2023-06-17T01:47:30.920Z,2.4180602006688963
2023-06-17T01:55:45.201Z,2.9364548494983276
2023-06-17T02:07:45.434Z,3.0
2023-06-17T02:14:05.386Z,3.100334448160535
2023-06-17T02:20:25.182Z,3.698996655518395
2023-06-17T02:32:20.011Z,3.05685618729097
2023-06-17T02:45:10.733Z,2.702341137123746
2023-06-17T02:51:30.886Z,2.2240802675585285
2023-06-17T02:57:51.527Z,2.4782608695652173
2023-06-17T03:06:16.613Z,3.0033444816053514
2023-06-17T03:12:36.408Z,3.431438127090301
2023-06-17T03:18:56.840Z,2.8862876254180603
2023-06-17T03:30:31.302Z,3.1270903010033444
2023-06-17T03:36:51.467Z,3.2474916387959865
2023-06-17T03:43:15.518Z,3.3244147157190636
2023-06-17T03:49:38.488Z,3.5183946488294313
2023-06-17T03:56:00.515Z,3.157190635451505
2023-06-17T04:02:23.179Z,3.1638795986622075
2023-06-17T04:08:46.316Z,4.050167224080267
2023-06-17T04:15:08.700Z,4.608695652173913
2023-06-17T04:22:02.527Z,3.9264214046822743
2023-06-17T04:32:52.825Z,2.6153846153846154
2023-06-17T04:41:36.451Z,3.765886287625418
2023-06-17T04:47:59.110Z,2.8729096989966556
2023-06-17T04:54:21.088Z,2.822742474916388
2023-06-17T05:04:11.728Z,3.4782608695652173
2023-06-17T05:10:34.878Z,3.5752508361204014
2023-06-17T05:16:57.955Z,2.869565217391304
2023-06-17T05:23:21.369Z,2.1638795986622075
2023-06-17T05:34:52.771Z,2.739130434782609
2023-06-17T05:41:18.692Z,2.120401337792642
2023-06-17T05:47:41.523Z,2.0702341137123748
2023-06-17T05:58:25.875Z,2.705685618729097
2023-06-17T06:10:29.804Z,2.762541806020067
2023-06-17T06:16:52.681Z,2.789297658862876
2023-06-17T06:23:15.422Z,3.4347826086956523
2023-06-17T06:34:56.878Z,2.9464882943143813
2023-06-17T06:42:36.669Z,2.6421404682274248
2023-06-17T06:48:58.924Z,3.5551839464882944
2023-06-17T06:55:22.538Z,2.9297658862876252
2023-06-17T07:02:07.839Z,3.6722408026755855
2023-06-17T07:15:25.319Z,3.0635451505016724
2023-06-17T07:21:47.517Z,3.137123745819398
2023-06-17T07:28:10.261Z,2.4648829431438126
2023-06-17T07:34:32.837Z,3.1070234113712374
2023-06-17T07:40:54.799Z,2.408026755852843
2023-06-17T07:48:41.064Z,2.57190635451505
2023-06-17T08:01:17.517Z,2.5217391304347827
2023-06-17T08:07:39.712Z,3.37123745819398
2023-06-17T08:14:31.096Z,3.862876254180602
2023-06-17T08:22:33.420Z,3.1672240802675584
2023-06-17T08:28:56.780Z,3.591973244147157
2023-06-17T08:35:20.551Z,4.270903010033445
2023-06-17T08:43:19.190Z,4.224080267558528
2023-06-17T08:49:43.870Z,2.722408026755853
2023-06-17T08:56:08.982Z,4.010033444816053
2023-06-17T09:02:33.157Z,3.709030100334448
2023-06-17T09:08:56.670Z,3.4180602006688963
2023-06-17T09:15:20.697Z,2.9565217391304346
2023-06-17T09:22:21.473Z,3.648829431438127
2023-06-17T09:29:29.716Z,4.150501672240803
2023-06-17T09:40:45.981Z,2.839464882943144
2023-06-17T09:54:50.421Z,3.678929765886288
2023-06-17T10:05:18.865Z,3.7157190635451505
2023-06-17T10:15:03.649Z,2.62876254180602
2023-06-17T10:21:29.146Z,2.7324414715719065
2023-06-17T10:27:52.988Z,3.551839464882943
2023-06-17T10:34:17.180Z,3.2876254180602005
2023-06-17T10:40:40.954Z,3.234113712374582
2023-06-17T10:47:04.585Z,3.648829431438127
2023-06-17T10:53:29.177Z,2.839464882943144
2023-06-17T11:11:41.590Z,2.8461538461538463
2023-06-17T11:18:06.282Z,2.94314381270903
2023-06-17T11:26:58.369Z,2.6622073578595318
2023-06-17T11:36:54.000Z,2.3946488294314383
2023-06-17T11:48:52.576Z,3.150501672240803
2023-06-17T11:55:16.011Z,2.74247491638796
2023-06-17T12:01:40.200Z,2.4448160535117056
2023-06-17T12:08:02.781Z,3.05685618729097
2023-06-17T12:19:45.852Z,3.3779264214046822
2023-06-17T12:31:10.333Z,2.2642140468227425
2023-06-17T12:37:33.220Z,1.6187290969899666
2023-06-17T12:43:55.915Z,2.4247491638795986
2023-06-17T12:50:18.914Z,2.4013377926421406
2023-06-17T12:56:55.605Z,2.6655518394648827
2023-06-17T13:03:19.077Z,1.839464882943144
2023-06-17T13:09:42.519Z,2.431438127090301
2023-06-17T13:16:05.517Z,1.8929765886287626
2023-06-17T13:22:28.258Z,2.4749163879598663
2023-06-17T13:28:51.564Z,2.4180602006688963
2023-06-17T13:50:37.680Z,1.4448160535117056
2023-06-17T13:57:00.379Z,1.568561872909699
2023-06-17T14:03:23.833Z,1.7224080267558528
2023-06-17T14:12:21.808Z,2.3578595317725752
2023-06-17T14:18:45.008Z,2.9933110367892977
2023-06-17T14:25:07.470Z,1.4581939799331103
2023-06-17T14:31:30.571Z,2.210702341137124
2023-06-17T14:37:54.032Z,2.1137123745819397
2023-06-17T14:48:26.031Z,1.9431438127090301
2023-06-17T14:54:50.336Z,2.4816053511705687
2023-06-17T15:04:53.368Z,1.2408026755852843
2023-06-17T15:11:17.959Z,1.3612040133779264
2023-06-17T15:17:41.427Z,1.8695652173913044
2023-06-17T15:24:36.288Z,1.7792642140468227
2023-06-17T15:36:35.546Z,2.548494983277592
2023-06-17T15:42:59.668Z,2.1839464882943145
2023-06-17T15:59:22.155Z,1.4949832775919731
2023-06-17T16:05:45.231Z,2.0668896321070234
2023-06-17T16:12:08.540Z,1.959866220735786
2023-06-17T16:20:29.960Z,1.0635451505016722
2023-06-17T16:31:36.320Z,1.374581939799331
2023-06-17T16:38:00.671Z,1.2107023411371238
2023-06-17T16:44:24.791Z,1.3244147157190636
2023-06-17T16:50:49.767Z,1.1438127090301002
2023-06-17T16:57:13.018Z,1.7625418060200668
2023-06-17T17:03:36.769Z,1.4180602006688963
2023-06-17T17:10:00.417Z,1.785953177257525
2023-06-17T17:16:23.660Z,2.0133779264214047
2023-06-17T17:28:38.764Z,1.3846153846153846
2023-06-17T17:35:01.861Z,1.3678929765886287
2023-06-17T17:41:24.899Z,2.3076923076923075
2023-06-17T17:59:28.313Z,2.6755852842809364
2023-06-17T18:07:01.989Z,2.7123745819397995
2023-06-17T18:13:24.435Z,3.6354515050167224
2023-06-17T18:19:47.123Z,3.471571906354515
2023-06-17T18:26:09.477Z,2.5953177257525084
2023-06-17T18:32:31.372Z,3.3645484949832776
2023-06-17T18:38:54.343Z,2.7357859531772575
2023-06-17T18:45:17.494Z,3.588628762541806
2023-06-17T18:51:41.219Z,3.311036789297659
2023-06-17T19:04:50.921Z,2.68561872909699
2023-06-17T19:18:38.190Z,2.739130434782609
2023-06-17T19:25:01.070Z,1.8963210702341138
2023-06-17T19:31:24.781Z,3.2240802675585285
2023-06-17T19:42:38.301Z,2.0836120401337794
2023-06-17T19:48:59.055Z,2.9130434782608696
2023-06-17T19:55:21.639Z,2.8561872909698995
2023-06-17T20:08:30.077Z,2.491638795986622
2023-06-17T20:14:51.003Z,3.688963210702341
2023-06-17T20:27:43.748Z,3.0434782608695654
2023-06-17T20:34:04.399Z,2.6454849498327757
2023-06-17T20:44:11.553Z,3.060200668896321
2023-06-17T20:50:32.212Z,2.9364548494983276
2023-06-17T20:56:52.901Z,2.4816053511705687
2023-06-17T21:03:13.973Z,3.1739130434782608
2023-06-17T21:09:34.908Z,2.9565217391304346
2023-06-17T21:22:07.019Z,3.4013377926421406
2023-06-17T21:28:32.392Z,2.6454849498327757
2023-06-17T21:38:19.491Z,2.819397993311037
2023-06-17T21:50:51.296Z,3.4013377926421406
2023-06-17T21:57:12.733Z,2.779264214046823
2023-06-17T22:07:23.643Z,3.120401337792642
2023-06-17T22:19:38.647Z,2.7357859531772575
2023-06-17T22:33:28.719Z,3.789297658862876
2023-06-17T22:44:47.415Z,2.5451505016722407
2023-06-17T22:51:08.116Z,2.983277591973244
2023-06-17T22:57:28.468Z,3.4949832775919734
2023-06-17T23:03:49.300Z,2.0501672240802677
2023-06-17T23:10:56.769Z,3.632107023411371
2023-06-17T23:17:17.525Z,2.899665551839465
2023-06-17T23:23:37.981Z,3.2240802675585285
2023-06-17T23:42:29.146Z,2.919732441471572
2023-06-17T23:48:50.423Z,2.1872909698996654
2023-06-17T23:55:11.931Z,2.1638795986622075
